Terminal Aerodrome Forecast
Issued by NWS Sterling, VA

Home | Current Version | Previous Version | Text Only | Print | Product List | Glossary On
Versions: 1 2 3 4 5 6 7 8 9 10 11 12 13 14 15 16 17 18
000
FTUS41 KLWX 290156 AAA
TAFMRB
TAF AMD
KMRB 290156Z 2902/2924 32010G17KT P6SM FEW080
     FM290400 30008KT P6SM SKC
     FM291700 27005KT P6SM FEW250
     FM292000 23006KT P6SM FEW250
     FM292300 17005KT P6SM SCT250=

USA.gov is the U.S. government's official web portal to all federal, state and local government web resources and services.